sensor_id;sensor_type;location;lat;lon;timestamp;pressure;altitude;pressure_sealevel;temperature;humidity
21129;BME280;10722;51.910;8.352;2023-04-03T00:00:46;102206.66;;;3.28;76.36
21129;BME280;10722;51.910;8.352;2023-04-03T00:03:32;102212.91;;;3.20;76.65
21129;BME280;10722;51.910;8.352;2023-04-03T00:06:18;102214.38;;;3.16;76.76
21129;BME280;10722;51.910;8.352;2023-04-03T00:09:03;102213.47;;;3.16;77.19
21129;BME280;10722;51.910;8.352;2023-04-03T00:11:48;102215.25;;;3.17;76.64
21129;BME280;10722;51.910;8.352;2023-04-03T00:14:34;102212.25;;;3.10;76.99
21129;BME280;10722;51.910;8.352;2023-04-03T00:17:19;102206.47;;;3.01;76.72
21129;BME280;10722;51.910;8.352;2023-04-03T00:20:05;102214.72;;;2.97;77.39
21129;BME280;10722;51.910;8.352;2023-04-03T00:22:50;102209.72;;;2.99;77.22
21129;BME280;10722;51.910;8.352;2023-04-03T00:25:36;102223.59;;;3.02;77.50
21129;BME280;10722;51.910;8.352;2023-04-03T00:28:21;102225.38;;;2.91;77.70
21129;BME280;10722;51.910;8.352;2023-04-03T00:31:07;102231.16;;;2.77;77.94
21129;BME280;10722;51.910;8.352;2023-04-03T00:33:52;102232.47;;;2.84;77.85
21129;BME280;10722;51.910;8.352;2023-04-03T00:36:37;102235.03;;;2.84;78.00
21129;BME280;10722;51.910;8.352;2023-04-03T00:39:22;102235.25;;;2.87;78.08
21129;BME280;10722;51.910;8.352;2023-04-03T00:42:08;102239.72;;;2.78;77.91
21129;BME280;10722;51.910;8.352;2023-04-03T00:47:41;102250.94;;;2.80;78.31
21129;BME280;10722;51.910;8.352;2023-04-03T00:50:28;102247.69;;;2.59;78.44
21129;BME280;10722;51.910;8.352;2023-04-03T00:53:27;102247.94;;;2.62;78.66
21129;BME280;10722;51.910;8.352;2023-04-03T00:56:16;102252.13;;;2.50;78.61
21129;BME280;10722;51.910;8.352;2023-04-03T00:59:11;102251.03;;;2.58;78.88
21129;BME280;10722;51.910;8.352;2023-04-03T01:01:58;102248.81;;;2.51;78.60
21129;BME280;10722;51.910;8.352;2023-04-03T01:04:44;102255.34;;;2.47;78.92
21129;BME280;10722;51.910;8.352;2023-04-03T01:07:30;102251.09;;;2.36;79.41
21129;BME280;10722;51.910;8.352;2023-04-03T01:10:17;102260.63;;;2.27;79.69
21129;BME280;10722;51.910;8.352;2023-04-03T01:13:17;102260.38;;;2.23;80.01
21129;BME280;10722;51.910;8.352;2023-04-03T01:16:04;102270.03;;;2.28;80.24
21129;BME280;10722;51.910;8.352;2023-04-03T01:18:50;102257.38;;;2.17;80.60
21129;BME280;10722;51.910;8.352;2023-04-03T01:22:02;102264.25;;;2.18;81.06
21129;BME280;10722;51.910;8.352;2023-04-03T01:24:49;102264.69;;;2.13;80.59
21129;BME280;10722;51.910;8.352;2023-04-03T01:27:34;102264.44;;;2.10;80.82
21129;BME280;10722;51.910;8.352;2023-04-03T01:30:24;102265.53;;;2.01;80.83
21129;BME280;10722;51.910;8.352;2023-04-03T01:33:11;102274.06;;;2.02;81.16
21129;BME280;10722;51.910;8.352;2023-04-03T01:35:56;102280.78;;;2.12;81.04
21129;BME280;10722;51.910;8.352;2023-04-03T01:38:42;102280.41;;;2.07;81.17
21129;BME280;10722;51.910;8.352;2023-04-03T01:41:28;102286.34;;;1.96;81.58
21129;BME280;10722;51.910;8.352;2023-04-03T01:44:14;102294.06;;;1.86;81.82
21129;BME280;10722;51.910;8.352;2023-04-03T01:46:59;102291.41;;;1.84;81.95
21129;BME280;10722;51.910;8.352;2023-04-03T01:49:44;102290.34;;;1.70;81.96
21129;BME280;10722;51.910;8.352;2023-04-03T01:52:29;102297.81;;;1.79;81.86
21129;BME280;10722;51.910;8.352;2023-04-03T01:55:15;102299.00;;;1.72;82.32
21129;BME280;10722;51.910;8.352;2023-04-03T01:58:00;102311.13;;;1.75;82.72
21129;BME280;10722;51.910;8.352;2023-04-03T02:00:45;102300.91;;;1.75;82.65
21129;BME280;10722;51.910;8.352;2023-04-03T02:03:30;102294.97;;;1.64;82.67
21129;BME280;10722;51.910;8.352;2023-04-03T02:06:15;102300.53;;;1.70;82.96
21129;BME280;10722;51.910;8.352;2023-04-03T02:09:01;102308.47;;;1.63;82.67
21129;BME280;10722;51.910;8.352;2023-04-03T02:11:46;102307.75;;;1.54;83.18
21129;BME280;10722;51.910;8.352;2023-04-03T02:14:31;102308.53;;;1.53;83.31
21129;BME280;10722;51.910;8.352;2023-04-03T02:17:16;102308.00;;;1.57;83.17
21129;BME280;10722;51.910;8.352;2023-04-03T02:20:02;102313.75;;;1.54;83.29
21129;BME280;10722;51.910;8.352;2023-04-03T02:22:48;102300.75;;;1.51;83.30
21129;BME280;10722;51.910;8.352;2023-04-03T02:25:34;102312.84;;;1.54;82.96
21129;BME280;10722;51.910;8.352;2023-04-03T02:28:22;102302.03;;;1.46;82.80
21129;BME280;10722;51.910;8.352;2023-04-03T02:31:08;102303.88;;;1.37;83.00
21129;BME280;10722;51.910;8.352;2023-04-03T02:33:54;102299.78;;;1.39;83.11
21129;BME280;10722;51.910;8.352;2023-04-03T02:36:39;102308.47;;;1.41;83.48
21129;BME280;10722;51.910;8.352;2023-04-03T02:39:25;102307.69;;;1.42;83.15
21129;BME280;10722;51.910;8.352;2023-04-03T02:42:09;102298.91;;;1.39;83.08
21129;BME280;10722;51.910;8.352;2023-04-03T02:44:55;102309.75;;;1.36;83.06
21129;BME280;10722;51.910;8.352;2023-04-03T02:47:41;102319.53;;;1.42;83.40
21129;BME280;10722;51.910;8.352;2023-04-03T02:50:26;102306.97;;;1.23;83.21
21129;BME280;10722;51.910;8.352;2023-04-03T02:53:11;102305.94;;;1.21;83.64
21129;BME280;10722;51.910;8.352;2023-04-03T02:55:56;102311.19;;;1.22;83.60
21129;BME280;10722;51.910;8.352;2023-04-03T02:58:42;102311.44;;;1.25;83.81
21129;BME280;10722;51.910;8.352;2023-04-03T03:01:27;102316.44;;;1.14;84.23
21129;BME280;10722;51.910;8.352;2023-04-03T03:04:12;102314.03;;;1.05;84.44
21129;BME280;10722;51.910;8.352;2023-04-03T03:06:58;102323.94;;;1.22;84.91
21129;BME280;10722;51.910;8.352;2023-04-03T03:09:43;102318.59;;;1.09;84.85
21129;BME280;10722;51.910;8.352;2023-04-03T03:12:29;102321.53;;;1.14;84.66
21129;BME280;10722;51.910;8.352;2023-04-03T03:15:16;102320.25;;;1.19;84.34
21129;BME280;10722;51.910;8.352;2023-04-03T03:18:01;102314.94;;;0.95;84.56
21129;BME280;10722;51.910;8.352;2023-04-03T03:20:54;102314.69;;;0.92;85.13
21129;BME280;10722;51.910;8.352;2023-04-03T03:23:40;102323.22;;;0.93;85.20
21129;BME280;10722;51.910;8.352;2023-04-03T03:26:25;102317.25;;;0.72;85.58
21129;BME280;10722;51.910;8.352;2023-04-03T03:29:10;102321.28;;;0.90;85.05
21129;BME280;10722;51.910;8.352;2023-04-03T03:31:55;102325.28;;;0.66;85.35
21129;BME280;10722;51.910;8.352;2023-04-03T03:34:40;102331.91;;;0.74;85.66
21129;BME280;10722;51.910;8.352;2023-04-03T03:37:25;102329.09;;;0.71;85.50
21129;BME280;10722;51.910;8.352;2023-04-03T03:40:11;102324.91;;;0.72;85.37
21129;BME280;10722;51.910;8.352;2023-04-03T03:42:56;102333.03;;;0.78;85.61
21129;BME280;10722;51.910;8.352;2023-04-03T03:45:41;102331.63;;;0.81;85.27
21129;BME280;10722;51.910;8.352;2023-04-03T03:48:26;102330.13;;;0.63;85.22
21129;BME280;10722;51.910;8.352;2023-04-03T03:51:11;102328.97;;;0.59;85.23
21129;BME280;10722;51.910;8.352;2023-04-03T03:53:57;102323.09;;;0.50;85.25
21129;BME280;10722;51.910;8.352;2023-04-03T03:56:42;102326.94;;;0.55;85.48
21129;BME280;10722;51.910;8.352;2023-04-03T03:59:27;102335.97;;;0.41;85.42
21129;BME280;10722;51.910;8.352;2023-04-03T04:02:12;102335.72;;;0.59;85.60
21129;BME280;10722;51.910;8.352;2023-04-03T04:04:57;102340.94;;;0.40;85.42
21129;BME280;10722;51.910;8.352;2023-04-03T04:07:42;102340.56;;;0.46;85.84
21129;BME280;10722;51.910;8.352;2023-04-03T04:10:27;102354.66;;;0.42;85.97
21129;BME280;10722;51.910;8.352;2023-04-03T04:13:13;102348.44;;;0.38;85.90
21129;BME280;10722;51.910;8.352;2023-04-03T04:15:58;102353.13;;;0.34;86.24
21129;BME280;10722;51.910;8.352;2023-04-03T04:18:43;102354.16;;;0.26;86.27
21129;BME280;10722;51.910;8.352;2023-04-03T04:21:28;102356.97;;;0.29;86.49
21129;BME280;10722;51.910;8.352;2023-04-03T04:24:14;102363.56;;;0.27;86.66
21129;BME280;10722;51.910;8.352;2023-04-03T04:26:59;102367.88;;;0.28;86.70
21129;BME280;10722;51.910;8.352;2023-04-03T04:29:44;102366.06;;;0.16;87.15
21129;BME280;10722;51.910;8.352;2023-04-03T04:32:30;102366.19;;;0.08;87.31
21129;BME280;10722;51.910;8.352;2023-04-03T04:35:15;102369.47;;;-0.04;87.66
21129;BME280;10722;51.910;8.352;2023-04-03T04:38:01;102377.63;;;0.03;88.32
21129;BME280;10722;51.910;8.352;2023-04-03T04:40:47;102381.66;;;-0.10;88.81
21129;BME280;10722;51.910;8.352;2023-04-03T04:43:32;102381.28;;;-0.04;89.08
21129;BME280;10722;51.910;8.352;2023-04-03T04:46:18;102393.81;;;0.03;89.42
21129;BME280;10722;51.910;8.352;2023-04-03T04:49:03;102388.41;;;-0.10;89.14
21129;BME280;10722;51.910;8.352;2023-04-03T04:51:48;102388.81;;;-0.06;89.55
21129;BME280;10722;51.910;8.352;2023-04-03T04:54:36;102399.72;;;-0.07;90.02
21129;BME280;10722;51.910;8.352;2023-04-03T04:57:22;102399.47;;;-0.10;89.64
21129;BME280;10722;51.910;8.352;2023-04-03T05:00:08;102396.72;;;-0.03;90.33
21129;BME280;10722;51.910;8.352;2023-04-03T05:02:53;102403.66;;;-0.10;90.05
21129;BME280;10722;51.910;8.352;2023-04-03T05:05:38;102405.59;;;-0.08;90.48
21129;BME280;10722;51.910;8.352;2023-04-03T05:08:24;102410.53;;;-0.09;90.36
21129;BME280;10722;51.910;8.352;2023-04-03T05:11:09;102411.78;;;-0.14;90.47
21129;BME280;10722;51.910;8.352;2023-04-03T05:13:55;102410.63;;;-0.18;90.61
21129;BME280;10722;51.910;8.352;2023-04-03T05:16:40;102422.59;;;-0.17;91.13
21129;BME280;10722;51.910;8.352;2023-04-03T05:19:26;102419.63;;;-0.21;90.93
21129;BME280;10722;51.910;8.352;2023-04-03T05:22:11;102425.16;;;-0.17;91.33
21129;BME280;10722;51.910;8.352;2023-04-03T05:24:56;102424.13;;;-0.09;91.14
21129;BME280;10722;51.910;8.352;2023-04-03T05:27:41;102423.75;;;-0.13;91.59
21129;BME280;10722;51.910;8.352;2023-04-03T05:30:26;102423.66;;;-0.05;91.48
21129;BME280;10722;51.910;8.352;2023-04-03T05:33:12;102432.00;;;-0.16;91.12
21129;BME280;10722;51.910;8.352;2023-04-03T05:36:03;102431.03;;;-0.08;91.39
21129;BME280;10722;51.910;8.352;2023-04-03T05:38:48;102434.31;;;-0.09;91.15
21129;BME280;10722;51.910;8.352;2023-04-03T05:41:34;102441.22;;;-0.08;91.54
21129;BME280;10722;51.910;8.352;2023-04-03T05:44:19;102442.34;;;-0.04;91.28
21129;BME280;10722;51.910;8.352;2023-04-03T05:47:04;102445.31;;;0.01;91.23
21129;BME280;10722;51.910;8.352;2023-04-03T05:49:49;102456.28;;;0.10;91.19
21129;BME280;10722;51.910;8.352;2023-04-03T05:52:37;102441.56;;;0.16;91.13
21129;BME280;10722;51.910;8.352;2023-04-03T05:55:24;102453.34;;;0.34;90.79
21129;BME280;10722;51.910;8.352;2023-04-03T05:58:10;102448.47;;;0.27;90.56
21129;BME280;10722;51.910;8.352;2023-04-03T06:00:55;102448.63;;;0.29;90.20
21129;BME280;10722;51.910;8.352;2023-04-03T06:03:41;102444.44;;;0.50;90.01
21129;BME280;10722;51.910;8.352;2023-04-03T06:06:43;102448.50;;;0.48;89.68
21129;BME280;10722;51.910;8.352;2023-04-03T06:09:28;102445.72;;;0.44;89.74
21129;BME280;10722;51.910;8.352;2023-04-03T06:12:14;102455.03;;;0.64;89.38
21129;BME280;10722;51.910;8.352;2023-04-03T06:14:59;102454.69;;;0.80;88.69
21129;BME280;10722;51.910;8.352;2023-04-03T06:17:44;102449.09;;;0.84;88.40
21129;BME280;10722;51.910;8.352;2023-04-03T06:20:29;102451.00;;;0.87;87.96
21129;BME280;10722;51.910;8.352;2023-04-03T06:23:14;102445.56;;;1.13;87.65
21129;BME280;10722;51.910;8.352;2023-04-03T06:26:00;102445.00;;;1.38;87.13
21129;BME280;10722;51.910;8.352;2023-04-03T06:28:45;102439.91;;;1.38;86.17
21129;BME280;10722;51.910;8.352;2023-04-03T06:31:31;102429.50;;;1.77;85.34
21129;BME280;10722;51.910;8.352;2023-04-03T06:34:16;102419.47;;;2.00;83.98
21129;BME280;10722;51.910;8.352;2023-04-03T06:37:02;102402.94;;;2.17;82.83
21129;BME280;10722;51.910;8.352;2023-04-03T06:39:48;102380.41;;;2.23;81.52
21129;BME280;10722;51.910;8.352;2023-04-03T06:42:34;102380.75;;;2.84;80.70
21129;BME280;10722;51.910;8.352;2023-04-03T06:45:18;102350.19;;;2.74;78.79
21129;BME280;10722;51.910;8.352;2023-04-03T06:48:04;102333.16;;;2.62;77.99
21129;BME280;10722;51.910;8.352;2023-04-03T06:50:49;102327.69;;;2.69;76.93
21129;BME280;10722;51.910;8.352;2023-04-03T06:53:34;102332.88;;;2.93;76.25
21129;BME280;10722;51.910;8.352;2023-04-03T06:56:20;102319.53;;;2.97;75.22
21129;BME280;10722;51.910;8.352;2023-04-03T06:59:06;102315.53;;;3.01;74.19
21129;BME280;10722;51.910;8.352;2023-04-03T07:01:51;102298.06;;;3.07;73.09
21129;BME280;10722;51.910;8.352;2023-04-03T07:04:36;102305.06;;;3.56;72.45
21129;BME280;10722;51.910;8.352;2023-04-03T07:07:22;102295.94;;;3.72;71.44
21129;BME280;10722;51.910;8.352;2023-04-03T07:10:07;102304.78;;;3.77;71.12
21129;BME280;10722;51.910;8.352;2023-04-03T07:12:53;102282.81;;;3.55;70.45
21129;BME280;10722;51.910;8.352;2023-04-03T07:15:38;102292.03;;;4.02;69.54
21129;BME280;10722;51.910;8.352;2023-04-03T07:18:24;102290.34;;;4.53;68.83
21129;BME280;10722;51.910;8.352;2023-04-03T07:21:09;102247.47;;;4.12;67.46
21129;BME280;10722;51.910;8.352;2023-04-03T07:23:55;102239.91;;;4.26;66.95
21129;BME280;10722;51.910;8.352;2023-04-03T07:26:40;102246.44;;;4.73;66.17
21129;BME280;10722;51.910;8.352;2023-04-03T07:29:25;102252.94;;;4.94;65.32
21129;BME280;10722;51.910;8.352;2023-04-03T07:32:10;102226.47;;;5.35;63.90
21129;BME280;10722;51.910;8.352;2023-04-03T07:34:56;102187.13;;;5.08;62.71
21129;BME280;10722;51.910;8.352;2023-04-03T07:37:40;102177.63;;;5.21;61.94
21129;BME280;10722;51.910;8.352;2023-04-03T07:40:25;102184.25;;;5.17;61.92
21129;BME280;10722;51.910;8.352;2023-04-03T07:43:11;102168.50;;;5.39;61.01
21129;BME280;10722;51.910;8.352;2023-04-03T07:45:56;102166.22;;;5.44;60.96
21129;BME280;10722;51.910;8.352;2023-04-03T07:48:41;102148.00;;;5.54;59.94
21129;BME280;10722;51.910;8.352;2023-04-03T07:51:27;102144.72;;;5.42;59.83
21129;BME280;10722;51.910;8.352;2023-04-03T07:54:12;102168.50;;;6.10;59.21
21129;BME280;10722;51.910;8.352;2023-04-03T07:56:57;102138.06;;;5.88;58.45
21129;BME280;10722;51.910;8.352;2023-04-03T07:59:43;102132.84;;;5.72;58.10
21129;BME280;10722;51.910;8.352;2023-04-03T08:02:28;102098.66;;;5.30;57.45
21129;BME280;10722;51.910;8.352;2023-04-03T08:05:13;102115.75;;;5.72;57.85
21129;BME280;10722;51.910;8.352;2023-04-03T08:07:59;102093.06;;;5.65;56.62
21129;BME280;10722;51.910;8.352;2023-04-03T08:10:48;102061.38;;;5.79;55.75
21129;BME280;10722;51.910;8.352;2023-04-03T08:13:33;102070.09;;;5.96;55.19
21129;BME280;10722;51.910;8.352;2023-04-03T08:16:22;102061.72;;;6.30;54.36
21129;BME280;10722;51.910;8.352;2023-04-03T08:19:07;102024.00;;;5.70;53.84
21129;BME280;10722;51.910;8.352;2023-04-03T08:22:03;102022.34;;;6.00;53.25
21129;BME280;10722;51.910;8.352;2023-04-03T08:24:48;101965.69;;;5.52;51.99
21129;BME280;10722;51.910;8.352;2023-04-03T08:27:43;102012.19;;;6.33;51.91
21129;BME280;10722;51.910;8.352;2023-04-03T08:30:28;101947.88;;;6.16;50.63
21129;BME280;10722;51.910;8.352;2023-04-03T08:33:13;101945.13;;;6.28;50.21
21129;BME280;10722;51.910;8.352;2023-04-03T08:35:59;101944.00;;;6.39;49.63
21129;BME280;10722;51.910;8.352;2023-04-03T08:38:44;101941.13;;;6.49;49.03
21129;BME280;10722;51.910;8.352;2023-04-03T08:41:42;101946.69;;;6.57;49.48
21129;BME280;10722;51.910;8.352;2023-04-03T08:44:45;101978.84;;;6.82;49.77
21129;BME280;10722;51.910;8.352;2023-04-03T08:48:13;102005.53;;;7.16;50.31
21129;BME280;10722;51.910;8.352;2023-04-03T08:51:03;101989.19;;;7.00;50.09
21129;BME280;10722;51.910;8.352;2023-04-03T08:54:04;101963.25;;;6.62;49.54
21129;BME280;10722;51.910;8.352;2023-04-03T08:56:52;101997.69;;;7.15;49.60
21129;BME280;10722;51.910;8.352;2023-04-03T08:59:38;101970.78;;;6.76;49.26
21129;BME280;10722;51.910;8.352;2023-04-03T09:05:47;102008.00;;;7.31;49.64
21129;BME280;10722;51.910;8.352;2023-04-03T09:08:44;102021.41;;;7.76;49.16
21129;BME280;10722;51.910;8.352;2023-04-03T09:14:26;102031.03;;;6.95;50.95
21129;BME280;10722;51.910;8.352;2023-04-03T09:17:24;102058.59;;;7.47;50.97
21129;BME280;10722;51.910;8.352;2023-04-03T09:26:13;102000.25;;;7.31;49.49
21129;BME280;10722;51.910;8.352;2023-04-03T09:29:02;101990.09;;;7.00;49.84
21129;BME280;10722;51.910;8.352;2023-04-03T09:31:54;102006.91;;;7.10;50.18
21129;BME280;10722;51.910;8.352;2023-04-03T09:34:41;102009.81;;;7.50;49.60
21129;BME280;10722;51.910;8.352;2023-04-03T09:43:31;102008.19;;;7.69;49.80
21129;BME280;10722;51.910;8.352;2023-04-03T09:46:33;101962.78;;;7.20;49.10
21129;BME280;10722;51.910;8.352;2023-04-03T09:49:19;101988.09;;;7.45;49.47
21129;BME280;10722;51.910;8.352;2023-04-03T09:52:25;101993.81;;;7.39;49.72
21129;BME280;10722;51.910;8.352;2023-04-03T09:55:33;101991.19;;;7.22;50.11
21129;BME280;10722;51.910;8.352;2023-04-03T09:58:26;102019.97;;;7.31;50.41
21129;BME280;10722;51.910;8.352;2023-04-03T10:01:34;101980.81;;;7.20;49.86
21129;BME280;10722;51.910;8.352;2023-04-03T10:04:20;101959.91;;;7.30;49.05
21129;BME280;10722;51.910;8.352;2023-04-03T10:07:30;101952.06;;;7.29;48.72
21129;BME280;10722;51.910;8.352;2023-04-03T10:10:19;101932.69;;;7.35;48.11
21129;BME280;10722;51.910;8.352;2023-04-03T10:16:12;101934.03;;;7.11;48.63
21129;BME280;10722;51.910;8.352;2023-04-03T10:19:13;101950.28;;;6.93;49.47
21129;BME280;10722;51.910;8.352;2023-04-03T10:22:37;101959.06;;;7.31;49.03
21129;BME280;10722;51.910;8.352;2023-04-03T10:25:42;101933.28;;;7.30;48.46
21129;BME280;10722;51.910;8.352;2023-04-03T10:31:46;101896.38;;;7.47;47.21
21129;BME280;10722;51.910;8.352;2023-04-03T10:34:40;101935.44;;;7.92;47.72
21129;BME280;10722;51.910;8.352;2023-04-03T10:41:23;101907.72;;;7.16;48.56
21129;BME280;10722;51.910;8.352;2023-04-03T10:47:08;101938.69;;;7.52;48.70
21129;BME280;10722;51.910;8.352;2023-04-03T10:50:22;101891.72;;;7.40;47.49
21129;BME280;10722;51.910;8.352;2023-04-03T10:56:40;101981.59;;;8.41;48.84
21129;BME280;10722;51.910;8.352;2023-04-03T10:59:50;101941.91;;;8.20;48.11
21129;BME280;10722;51.910;8.352;2023-04-03T11:02:48;101901.13;;;7.93;47.68
21129;BME280;10722;51.910;8.352;2023-04-03T11:05:44;101892.28;;;8.06;47.55
21129;BME280;10722;51.910;8.352;2023-04-03T11:08:53;101923.03;;;8.58;47.25
21129;BME280;10722;51.910;8.352;2023-04-03T11:11:43;101858.00;;;7.89;46.50
21129;BME280;10722;51.910;8.352;2023-04-03T11:14:31;101851.63;;;7.27;47.35
21129;BME280;10722;51.910;8.352;2023-04-03T11:23:02;101909.84;;;6.42;49.21
21129;BME280;10722;51.910;8.352;2023-04-03T11:25:51;101939.75;;;6.72;50.01
21129;BME280;10722;51.910;8.352;2023-04-03T11:28:39;101917.66;;;6.76;49.38
21129;BME280;10722;51.910;8.352;2023-04-03T11:34:41;101977.91;;;7.82;49.92
21129;BME280;10722;51.910;8.352;2023-04-03T11:37:40;101964.88;;;8.15;49.42
21129;BME280;10722;51.910;8.352;2023-04-03T11:40:32;101960.31;;;8.45;49.02
21129;BME280;10722;51.910;8.352;2023-04-03T11:43:28;101962.97;;;8.86;48.25
21129;BME280;10722;51.910;8.352;2023-04-03T11:46:19;101909.53;;;8.44;48.09
21129;BME280;10722;51.910;8.352;2023-04-03T11:49:04;101895.63;;;8.41;47.36
21129;BME280;10722;51.910;8.352;2023-04-03T11:51:50;101910.63;;;8.49;47.83
21129;BME280;10722;51.910;8.352;2023-04-03T11:54:47;101865.22;;;7.43;47.79
21129;BME280;10722;51.910;8.352;2023-04-03T11:57:44;101901.59;;;7.67;48.76
21129;BME280;10722;51.910;8.352;2023-04-03T12:00:50;101871.69;;;7.16;48.55
21129;BME280;10722;51.910;8.352;2023-04-03T12:12:35;101881.34;;;7.38;49.01
21129;BME280;10722;51.910;8.352;2023-04-03T12:15:25;101860.81;;;6.88;49.32
21129;BME280;10722;51.910;8.352;2023-04-03T12:27:32;101854.38;;;6.96;49.63
21129;BME280;10722;51.910;8.352;2023-04-03T12:30:22;101939.78;;;8.11;50.31
21129;BME280;10722;51.910;8.352;2023-04-03T12:33:13;101911.25;;;9.04;48.17
21129;BME280;10722;51.910;8.352;2023-04-03T12:36:09;101840.22;;;8.71;46.77
21129;BME280;10722;51.910;8.352;2023-04-03T12:39:12;101816.38;;;8.19;47.10
21129;BME280;10722;51.910;8.352;2023-04-03T12:45:25;101847.66;;;7.34;49.28
21129;BME280;10722;51.910;8.352;2023-04-03T12:48:22;101892.16;;;8.03;49.77
21129;BME280;10722;51.910;8.352;2023-04-03T12:51:14;101853.31;;;7.80;48.75
21129;BME280;10722;51.910;8.352;2023-04-03T12:54:33;101817.78;;;7.02;49.17
21129;BME280;10722;51.910;8.352;2023-04-03T12:57:27;101848.03;;;7.24;49.33
21129;BME280;10722;51.910;8.352;2023-04-03T13:00:32;101807.78;;;7.08;48.53
21129;BME280;10722;51.910;8.352;2023-04-03T13:03:25;101849.94;;;8.58;47.36
21129;BME280;10722;51.910;8.352;2023-04-03T13:06:18;101839.34;;;9.55;46.00
21129;BME280;10722;51.910;8.352;2023-04-03T13:09:04;101803.78;;;10.39;44.13
21129;BME280;10722;51.910;8.352;2023-04-03T13:11:54;101753.47;;;9.84;43.26
21129;BME280;10722;51.910;8.352;2023-04-03T13:14:55;101789.41;;;10.01;44.42
21129;BME280;10722;51.910;8.352;2023-04-03T13:17:42;101754.63;;;9.24;44.29
21129;BME280;10722;51.910;8.352;2023-04-03T13:20:30;101737.88;;;9.36;43.69
21129;BME280;10722;51.910;8.352;2023-04-03T13:23:17;101746.63;;;9.62;43.68
21129;BME280;10722;51.910;8.352;2023-04-03T13:26:05;101724.44;;;9.68;43.22
21129;BME280;10722;51.910;8.352;2023-04-03T13:28:53;101755.13;;;10.29;42.98
21129;BME280;10722;51.910;8.352;2023-04-03T13:31:39;101795.16;;;10.90;43.52
21129;BME280;10722;51.910;8.352;2023-04-03T13:34:35;101773.13;;;10.51;43.28
21129;BME280;10722;51.910;8.352;2023-04-03T13:37:33;101760.97;;;10.49;43.32
21129;BME280;10722;51.910;8.352;2023-04-03T13:40:18;101721.06;;;9.70;43.22
21129;BME280;10722;51.910;8.352;2023-04-03T13:43:18;101795.72;;;10.31;44.04
21129;BME280;10722;51.910;8.352;2023-04-03T13:48:56;101800.38;;;10.66;44.47
21129;BME280;10722;51.910;8.352;2023-04-03T13:51:42;101758.63;;;10.31;43.58
21129;BME280;10722;51.910;8.352;2023-04-03T13:54:37;101728.13;;;10.46;43.09
21129;BME280;10722;51.910;8.352;2023-04-03T13:57:22;101700.66;;;9.54;43.37
21129;BME280;10722;51.910;8.352;2023-04-03T14:00:51;101803.00;;;11.18;44.08
21129;BME280;10722;51.910;8.352;2023-04-03T14:03:44;101714.63;;;10.05;43.15
21129;BME280;10722;51.910;8.352;2023-04-03T14:06:29;101757.16;;;10.15;44.97
21129;BME280;10722;51.910;8.352;2023-04-03T14:09:17;101734.38;;;10.05;44.13
21129;BME280;10722;51.910;8.352;2023-04-03T14:12:30;101715.16;;;9.28;44.47
21129;BME280;10722;51.910;8.352;2023-04-03T14:15:20;101761.44;;;9.44;45.74
21129;BME280;10722;51.910;8.352;2023-04-03T14:18:11;101737.06;;;8.94;46.01
21129;BME280;10722;51.910;8.352;2023-04-03T14:20:56;101722.94;;;8.42;46.40
21129;BME280;10722;51.910;8.352;2023-04-03T14:23:42;101769.09;;;8.57;47.34
21129;BME280;10722;51.910;8.352;2023-04-03T14:26:28;101752.41;;;8.49;47.05
21129;BME280;10722;51.910;8.352;2023-04-03T14:29:14;101739.53;;;8.70;46.17
21129;BME280;10722;51.910;8.352;2023-04-03T14:31:59;101736.25;;;8.95;45.74
21129;BME280;10722;51.910;8.352;2023-04-03T14:35:02;101732.66;;;8.91;45.77
21129;BME280;10722;51.910;8.352;2023-04-03T14:37:48;101705.81;;;8.65;45.81
21129;BME280;10722;51.910;8.352;2023-04-03T14:40:33;101730.84;;;9.32;45.62
21129;BME280;10722;51.910;8.352;2023-04-03T14:43:19;101731.28;;;10.14;44.45
21129;BME280;10722;51.910;8.352;2023-04-03T14:46:17;101699.88;;;9.32;45.07
21129;BME280;10722;51.910;8.352;2023-04-03T14:49:15;101684.47;;;9.35;44.21
21129;BME280;10722;51.910;8.352;2023-04-03T14:52:03;101724.91;;;9.80;45.08
21129;BME280;10722;51.910;8.352;2023-04-03T14:54:50;101671.69;;;9.16;44.24
21129;BME280;10722;51.910;8.352;2023-04-03T14:57:37;101712.34;;;10.15;44.22
21129;BME280;10722;51.910;8.352;2023-04-03T15:00:23;101675.91;;;10.32;43.16
21129;BME280;10722;51.910;8.352;2023-04-03T15:03:20;101654.78;;;10.20;42.44
21129;BME280;10722;51.910;8.352;2023-04-03T15:06:11;101657.53;;;9.75;43.45
21129;BME280;10722;51.910;8.352;2023-04-03T15:08:57;101637.00;;;9.09;43.88
21129;BME280;10722;51.910;8.352;2023-04-03T15:11:42;101665.81;;;9.20;44.23
21129;BME280;10722;51.910;8.352;2023-04-03T15:14:27;101689.03;;;9.89;44.03
21129;BME280;10722;51.910;8.352;2023-04-03T15:17:26;101646.41;;;9.54;43.45
21129;BME280;10722;51.910;8.352;2023-04-03T15:20:15;101663.09;;;10.12;43.12
21129;BME280;10722;51.910;8.352;2023-04-03T15:23:01;101635.22;;;10.54;41.53
21129;BME280;10722;51.910;8.352;2023-04-03T15:25:47;101612.66;;;9.73;41.90
21129;BME280;10722;51.910;8.352;2023-04-03T15:31:20;101637.44;;;9.68;43.22
21129;BME280;10722;51.910;8.352;2023-04-03T15:34:05;101614.41;;;9.04;43.42
21129;BME280;10722;51.910;8.352;2023-04-03T15:36:51;101649.25;;;9.37;43.59
21129;BME280;10722;51.910;8.352;2023-04-03T15:39:36;101636.84;;;9.05;44.10
21129;BME280;10722;51.910;8.352;2023-04-03T15:42:24;101707.06;;;9.87;44.65
21129;BME280;10722;51.910;8.352;2023-04-03T15:45:09;101638.69;;;9.31;43.96
21129;BME280;10722;51.910;8.352;2023-04-03T15:47:55;101612.34;;;8.72;43.93
21129;BME280;10722;51.910;8.352;2023-04-03T15:50:41;101636.72;;;8.58;45.19
21129;BME280;10722;51.910;8.352;2023-04-03T15:53:26;101647.13;;;8.60;45.20
21129;BME280;10722;51.910;8.352;2023-04-03T15:56:12;101682.75;;;8.91;45.76
21129;BME280;10722;51.910;8.352;2023-04-03T15:58:57;101659.53;;;8.91;44.91
21129;BME280;10722;51.910;8.352;2023-04-03T16:01:43;101665.25;;;8.84;45.76
21129;BME280;10722;51.910;8.352;2023-04-03T16:04:28;101649.88;;;8.43;45.75
21129;BME280;10722;51.910;8.352;2023-04-03T16:07:14;101653.78;;;8.34;46.05